Time;durP1;ratioP1;P1;durP2;ratioP2;P2;SDS_P1;SDS_P2;PMS_P1;PMS_P2;Temp;Humidity;BMP_temperature;BMP_pressure;BME280_temperature;BME280_humidity;BME280_pressure;Samples;Min_cycle;Max_cycle;Signal;HPM_P1;HPM_P2
2021/06/10 00:00:23;;;;;;;8.07;3.72;;;17.80;99.90;;;;;;5025077;28;20030;-61
2021/06/10 00:02:49;;;;;;;6.10;3.92;;;17.70;99.90;;;;;;5031892;28;20026;-63
2021/06/10 00:05:19;;;;;;;6.57;4.60;;;17.60;99.90;;;;;;5015619;28;20029;-65
2021/06/10 00:07:45;;;;;;;4.47;4.07;;;17.60;99.90;;;;;;5028584;28;20017;-63
2021/06/10 00:10:13;;;;;;;7.50;4.47;;;17.60;99.90;;;;;;5022192;28;20038;-63
2021/06/10 00:12:39;;;;;;;6.97;4.25;;;17.60;99.90;;;;;;5023791;28;20361;-63
2021/06/10 00:15:09;;;;;;;7.95;4.20;;;17.70;99.90;;;;;;5019065;28;20029;-63
2021/06/10 00:17:34;;;;;;;4.63;4.15;;;17.60;99.90;;;;;;5024779;28;20036;-63
2021/06/10 00:20:00;;;;;;;6.32;4.13;;;17.60;99.90;;;;;;5019765;28;20026;-63
2021/06/10 00:22:27;;;;;;;6.50;4.30;;;17.60;99.90;;;;;;5026314;28;20033;-61
2021/06/10 00:24:53;;;;;;;6.22;4.60;;;17.80;99.90;;;;;;5026853;28;20499;-63
2021/06/10 00:27:21;;;;;;;5.85;4.70;;;17.70;99.90;;;;;;5018422;28;20061;-62
2021/06/10 00:29:48;;;;;;;6.25;4.60;;;17.70;99.90;;;;;;5027315;28;20037;-62
2021/06/10 00:32:14;;;;;;;5.10;4.60;;;17.60;99.90;;;;;;5027731;28;20075;-63
2021/06/10 00:34:41;;;;;;;5.60;5.10;;;17.70;99.90;;;;;;5025982;28;20100;-63
2021/06/10 00:37:06;;;;;;;8.10;4.65;;;17.60;99.90;;;;;;5028114;28;20025;-62
2021/06/10 00:39:32;;;;;;;7.32;4.88;;;17.50;99.90;;;;;;5025155;28;20056;-62
2021/06/10 00:41:58;;;;;;;8.25;5.22;;;17.60;99.90;;;;;;5021328;28;20025;-63
2021/06/10 00:44:23;;;;;;;7.88;5.07;;;17.60;99.90;;;;;;5016422;28;20365;-64
2021/06/10 00:46:49;;;;;;;5.75;4.72;;;17.50;99.90;;;;;;5006766;28;20514;-63
2021/06/10 00:49:14;;;;;;;6.45;4.80;;;17.40;99.90;;;;;;5029101;28;20025;-62
2021/06/10 00:51:40;;;;;;;7.45;4.68;;;17.30;99.90;;;;;;5026835;28;20024;-62
2021/06/10 00:54:06;;;;;;;11.23;5.25;;;17.30;99.90;;;;;;5027364;28;20455;-64
2021/06/10 00:56:33;;;;;;;5.50;4.90;;;17.30;99.90;;;;;;5019209;28;20113;-64
2021/06/10 00:58:59;;;;;;;7.15;5.25;;;17.30;99.90;;;;;;5018434;28;20054;-63
2021/06/10 01:01:25;;;;;;;8.57;5.82;;;17.40;99.90;;;;;;5027998;28;20029;-62
2021/06/10 01:03:53;;;;;;;5.78;5.10;;;17.30;99.90;;;;;;5022782;28;20025;-62
2021/06/10 01:06:52;;;;;;;6.47;5.30;;;17.30;99.90;;;;;;5011369;28;20029;-62
2021/06/10 01:09:30;;;;;;;8.27;5.80;;;17.40;99.90;;;;;;5002048;28;20042;-62
2021/06/10 01:12:09;;;;;;;6.57;5.13;;;17.50;99.90;;;;;;5028535;28;20021;-63
2021/06/10 01:15:09;;;;;;;6.80;6.10;;;17.50;99.90;;;;;;5011721;28;20160;-61
2021/06/10 01:17:46;;;;;;;11.02;6.30;;;17.40;99.90;;;;;;5008164;28;20373;-63
2021/06/10 01:20:18;;;;;;;8.38;6.10;;;17.30;99.90;;;;;;5021575;28;20029;-62
2021/06/10 01:22:58;;;;;;;7.57;6.57;;;17.30;99.90;;;;;;5027995;28;20040;-62
2021/06/10 01:25:54;;;;;;;9.55;7.75;;;17.30;99.90;;;;;;5029029;28;20025;-64
2021/06/10 01:28:28;;;;;;;12.23;7.40;;;17.30;99.90;;;;;;5025007;28;20491;-63
2021/06/10 01:30:57;;;;;;;8.07;7.28;;;17.30;99.90;;;;;;5008497;28;20439;-62
2021/06/10 01:33:26;;;;;;;8.48;6.80;;;17.20;99.90;;;;;;5024160;28;20045;-61
2021/06/10 01:35:58;;;;;;;8.07;7.28;;;17.20;99.90;;;;;;5019389;28;20399;-63
2021/06/10 01:38:25;;;;;;;11.15;7.28;;;17.20;99.90;;;;;;5019765;28;20484;-64
2021/06/10 01:40:52;;;;;;;9.10;7.78;;;17.20;99.90;;;;;;5027569;28;20061;-63
2021/06/10 01:43:19;;;;;;;9.48;7.32;;;17.20;99.90;;;;;;5030513;28;20041;-63
2021/06/10 01:45:49;;;;;;;8.90;7.43;;;17.20;99.90;;;;;;5029542;28;20112;-63
2021/06/10 01:48:19;;;;;;;7.45;6.65;;;17.20;99.90;;;;;;5011969;28;20069;-63
2021/06/10 01:50:54;;;;;;;8.82;6.43;;;17.20;99.90;;;;;;5021352;28;20064;-63
2021/06/10 01:53:21;;;;;;;10.50;6.40;;;17.20;99.90;;;;;;5012262;28;20061;-65
2021/06/10 01:55:49;;;;;;;9.07;6.80;;;17.20;99.90;;;;;;5030503;28;20416;-65
2021/06/10 01:58:16;;;;;;;9.15;6.78;;;17.30;99.90;;;;;;5030009;28;20037;-63
2021/06/10 02:00:44;;;;;;;9.55;6.70;;;17.30;99.90;;;;;;5035700;28;20051;-62
2021/06/10 02:03:10;;;;;;;9.85;7.22;;;17.20;99.90;;;;;;5029504;28;20030;-64
2021/06/10 02:05:38;;;;;;;11.27;6.80;;;17.10;99.90;;;;;;5021484;28;20634;-63
2021/06/10 02:08:08;;;;;;;7.20;6.50;;;17.10;99.90;;;;;;5029689;28;20025;-62
2021/06/10 02:10:34;;;;;;;12.35;7.40;;;17.00;99.90;;;;;;5028298;28;20029;-63
2021/06/10 02:13:00;;;;;;;7.88;7.10;;;16.90;99.90;;;;;;5033793;28;20447;-64
2021/06/10 02:15:25;;;;;;;11.10;6.50;;;17.00;99.90;;;;;;5033408;28;20032;-63
2021/06/10 02:17:51;;;;;;;9.70;6.85;;;16.90;99.90;;;;;;5029416;28;20028;-63
2021/06/10 02:20:19;;;;;;;7.43;6.72;;;16.90;99.90;;;;;;5029684;28;20033;-62
2021/06/10 02:22:45;;;;;;;9.77;7.55;;;16.90;99.90;;;;;;5027982;28;20034;-63
2021/06/10 02:25:11;;;;;;;8.70;7.40;;;16.80;99.90;;;;;;5027700;28;20574;-62
2021/06/10 02:27:37;;;;;;;9.27;7.45;;;16.80;99.90;;;;;;5029326;28;20033;-65
2021/06/10 02:30:06;;;;;;;14.23;8.98;;;16.80;99.90;;;;;;5033694;28;20037;-62
2021/06/10 02:32:31;;;;;;;9.82;8.23;;;16.80;99.90;;;;;;5028112;28;20822;-64
2021/06/10 02:34:57;;;;;;;11.10;8.00;;;16.70;99.90;;;;;;5030054;28;20049;-62
2021/06/10 02:37:25;;;;;;;9.90;7.90;;;16.70;99.90;;;;;;5028036;28;20061;-62
2021/06/10 02:39:53;;;;;;;10.68;8.55;;;16.70;99.90;;;;;;5025907;28;20021;-63
2021/06/10 02:42:19;;;;;;;8.98;7.72;;;16.60;99.90;;;;;;5023602;28;20037;-63
2021/06/10 02:44:49;;;;;;;12.90;7.97;;;16.60;99.90;;;;;;5027937;28;20022;-62
2021/06/10 02:47:16;;;;;;;11.00;8.15;;;16.60;99.90;;;;;;5030705;28;20166;-61
2021/06/10 02:49:45;;;;;;;10.82;8.18;;;16.70;99.90;;;;;;5030167;28;20020;-63
2021/06/10 02:52:12;;;;;;;10.95;8.05;;;16.70;99.90;;;;;;5029693;28;20254;-63
2021/06/10 02:54:38;;;;;;;12.23;7.78;;;16.50;99.90;;;;;;5028769;28;20024;-63
2021/06/10 02:57:06;;;;;;;14.02;8.02;;;16.50;99.90;;;;;;5031836;28;20032;-63
2021/06/10 02:59:33;;;;;;;11.45;8.52;;;16.50;99.90;;;;;;5026111;28;20036;-63
2021/06/10 03:01:59;;;;;;;12.40;8.95;;;16.40;99.90;;;;;;5028308;28;20079;-63
2021/06/10 03:04:25;;;;;;;10.50;8.20;;;16.40;99.90;;;;;;5027143;28;20036;-65
2021/06/10 03:06:53;;;;;;;11.32;8.55;;;16.40;99.90;;;;;;5028681;28;20025;-63
2021/06/10 03:09:21;;;;;;;12.80;9.00;;;16.40;99.90;;;;;;5028320;28;20057;-62
2021/06/10 03:11:47;;;;;;;10.98;9.02;;;16.50;99.90;;;;;;5029141;28;20021;-64
2021/06/10 03:14:14;;;;;;;19.48;9.57;;;16.50;99.90;;;;;;5017847;28;20113;-62
2021/06/10 03:16:41;;;;;;;11.75;9.48;;;16.50;99.90;;;;;;5011305;28;20088;-63
2021/06/10 03:19:07;;;;;;;12.70;10.07;;;16.40;99.90;;;;;;5014332;28;20121;-63
2021/06/10 03:21:33;;;;;;;15.05;9.50;;;16.40;99.90;;;;;;5016222;28;20038;-63
2021/06/10 03:23:59;;;;;;;11.95;8.77;;;16.30;99.90;;;;;;5024462;28;20026;-66
2021/06/10 03:26:27;;;;;;;12.00;9.02;;;16.30;99.90;;;;;;5015752;28;20105;-64
2021/06/10 03:28:53;;;;;;;13.57;10.30;;;16.50;99.90;;;;;;5011768;28;20033;-64
2021/06/10 03:31:20;;;;;;;12.35;9.73;;;16.40;99.90;;;;;;5014861;28;20029;-63
2021/06/10 03:33:47;;;;;;;11.10;9.18;;;16.40;99.90;;;;;;5016398;28;20025;-63
2021/06/10 03:36:14;;;;;;;11.52;9.80;;;16.30;99.90;;;;;;5028825;28;20034;-63
2021/06/10 03:38:41;;;;;;;10.82;9.05;;;16.20;99.90;;;;;;5016299;28;20614;-63
2021/06/10 03:41:09;;;;;;;15.13;10.20;;;16.10;99.90;;;;;;5028688;28;20080;-63
2021/06/10 03:43:36;;;;;;;13.93;10.00;;;16.20;99.90;;;;;;5017343;28;20089;-63
2021/06/10 03:46:05;;;;;;;11.02;9.80;;;16.20;99.90;;;;;;5016673;28;20081;-63
2021/06/10 03:48:31;;;;;;;14.30;9.63;;;16.10;99.90;;;;;;5030251;28;20066;-63
2021/06/10 03:50:57;;;;;;;13.48;10.27;;;16.10;99.90;;;;;;5026440;28;20034;-64
2021/06/10 03:53:23;;;;;;;11.70;9.32;;;16.10;99.90;;;;;;5027932;28;20056;-64
2021/06/10 03:55:48;;;;;;;13.75;9.90;;;16.10;99.90;;;;;;5017046;28;20273;-63
2021/06/10 03:58:14;;;;;;;14.65;10.00;;;16.20;99.90;;;;;;5014682;28;20040;-62
2021/06/10 04:00:39;;;;;;;12.65;9.25;;;16.10;99.90;;;;;;5017478;28;20084;-63
2021/06/10 04:03:05;;;;;;;13.43;9.15;;;16.10;99.90;;;;;;5025370;28;20013;-63
2021/06/10 04:05:31;;;;;;;12.43;8.27;;;16.10;99.90;;;;;;5027242;28;20048;-64
2021/06/10 04:07:58;;;;;;;8.88;7.38;;;16.00;99.90;;;;;;5025944;28;20021;-64
2021/06/10 04:10:24;;;;;;;13.10;7.40;;;16.00;99.90;;;;;;5027844;28;20115;-63
2021/06/10 04:12:50;;;;;;;9.68;6.30;;;16.10;99.90;;;;;;5026655;28;20048;-63
2021/06/10 04:15:17;;;;;;;6.13;5.07;;;16.20;99.90;;;;;;5022537;28;20037;-63
2021/06/10 04:17:43;;;;;;;6.88;5.80;;;16.30;99.90;;;;;;5035169;28;20037;-63
2021/06/10 04:20:09;;;;;;;7.25;5.65;;;16.40;99.90;;;;;;5027032;28;20777;-64
2021/06/10 04:22:35;;;;;;;5.38;4.72;;;16.40;99.90;;;;;;5027946;28;20021;-64
2021/06/10 04:25:00;;;;;;;5.05;4.55;;;16.40;99.90;;;;;;5026645;28;20652;-63
2021/06/10 04:27:26;;;;;;;5.28;3.72;;;16.40;99.90;;;;;;5027604;28;20491;-63
2021/06/10 04:29:52;;;;;;;4.05;3.10;;;16.40;99.90;;;;;;5027362;28;20100;-65
2021/06/10 04:32:17;;;;;;;4.28;2.75;;;16.60;99.90;;;;;;5027089;28;20033;-63
2021/06/10 04:34:43;;;;;;;4.75;3.30;;;16.60;99.90;;;;;;5029109;28;20496;-62
2021/06/10 04:37:08;;;;;;;4.95;2.90;;;16.60;99.90;;;;;;5023067;28;20029;-64
2021/06/10 04:39:34;;;;;;;8.75;2.80;;;16.60;99.90;;;;;;5024383;28;20026;-64
2021/06/10 04:41:59;;;;;;;3.90;2.22;;;16.60;99.90;;;;;;5023162;28;20030;-64
2021/06/10 04:44:25;;;;;;;5.68;2.33;;;16.60;99.90;;;;;;5021135;28;20484;-64
2021/06/10 04:46:51;;;;;;;6.60;2.05;;;16.60;99.90;;;;;;5022288;28;20052;-63
2021/06/10 04:49:16;;;;;;;3.40;1.85;;;16.80;99.90;;;;;;5022797;28;20256;-63
2021/06/10 04:51:42;;;;;;;3.05;1.83;;;16.80;99.90;;;;;;5010419;28;20227;-64
2021/06/10 04:54:07;;;;;;;4.70;1.98;;;16.80;99.90;;;;;;5020927;28;20099;-64
2021/06/10 04:56:33;;;;;;;2.80;1.42;;;16.80;99.90;;;;;;5022299;28;20036;-63
2021/06/10 04:59:00;;;;;;;3.45;1.75;;;16.90;99.90;;;;;;5024962;28;20029;-63
2021/06/10 05:01:25;;;;;;;3.20;1.52;;;17.00;99.90;;;;;;5019656;28;20068;-62
2021/06/10 05:03:51;;;;;;;2.53;1.45;;;17.10;99.90;;;;;;5022857;28;20022;-63
2021/06/10 05:06:17;;;;;;;3.22;1.40;;;17.10;99.90;;;;;;5044952;23;20049;-67
2021/06/10 05:08:42;;;;;;;2.28;1.45;;;17.20;99.90;;;;;;5042695;28;20021;-67
2021/06/10 05:11:08;;;;;;;1.88;1.23;;;17.30;99.90;;;;;;5035601;28;20060;-66
2021/06/10 05:13:34;;;;;;;2.38;1.30;;;17.40;99.90;;;;;;5040265;28;20203;-67
2021/06/10 05:15:59;;;;;;;3.60;1.38;;;17.50;99.90;;;;;;5046419;28;20431;-67
2021/06/10 05:18:25;;;;;;;6.82;1.65;;;17.60;99.90;;;;;;5037950;28;20427;-67
2021/06/10 05:20:50;;;;;;;4.47;1.30;;;17.60;99.90;;;;;;5037873;28;20033;-67
2021/06/10 05:23:16;;;;;;;2.50;1.10;;;17.80;99.90;;;;;;5052001;28;20041;-66
2021/06/10 05:25:42;;;;;;;1.75;1.52;;;17.80;99.90;;;;;;5041834;28;20032;-66
2021/06/10 05:28:08;;;;;;;2.20;1.30;;;18.00;99.90;;;;;;5038435;28;20048;-65
2021/06/10 05:30:33;;;;;;;6.38;1.50;;;18.00;99.90;;;;;;5045458;28;20063;-64
2021/06/10 05:32:59;;;;;;;3.22;1.55;;;18.20;99.90;;;;;;5034906;28;20518;-65
2021/06/10 05:35:25;;;;;;;3.65;1.35;;;18.20;99.90;;;;;;5034221;28;20315;-65
2021/06/10 05:37:51;;;;;;;2.05;1.65;;;18.20;99.90;;;;;;5030379;28;20163;-63
2021/06/10 05:40:18;;;;;;;6.47;1.80;;;18.10;99.90;;;;;;5037879;28;20325;-65
2021/06/10 05:42:43;;;;;;;2.88;2.10;;;18.20;99.90;;;;;;5028949;28;20028;-65
2021/06/10 05:45:09;;;;;;;3.42;2.28;;;18.30;99.90;;;;;;5033038;28;20017;-66
2021/06/10 05:47:35;;;;;;;4.25;2.25;;;18.20;99.90;;;;;;5045498;28;20539;-64
2021/06/10 05:50:01;;;;;;;4.32;2.25;;;18.20;99.90;;;;;;5043320;28;20040;-65
2021/06/10 05:52:27;;;;;;;6.80;2.83;;;18.30;99.90;;;;;;5048072;28;20033;-67
2021/06/10 05:54:53;;;;;;;9.25;1.98;;;18.40;99.90;;;;;;5033855;28;20098;-66
2021/06/10 05:57:19;;;;;;;5.97;2.72;;;18.50;99.90;;;;;;5047450;28;20031;-65
2021/06/10 05:59:47;;;;;;;5.13;2.60;;;18.70;99.90;;;;;;5044568;28;20063;-65
2021/06/10 06:02:14;;;;;;;6.70;3.42;;;18.80;99.90;;;;;;5041854;28;20022;-66
2021/06/10 06:04:40;;;;;;;12.75;3.67;;;18.60;99.90;;;;;;5052992;28;20040;-66
2021/06/10 06:07:06;;;;;;;6.88;2.97;;;18.70;99.90;;;;;;5059120;28;20019;-66
2021/06/10 06:09:33;;;;;;;7.80;3.38;;;18.90;99.90;;;;;;5056502;28;20060;-65
2021/06/10 06:11:59;;;;;;;8.35;3.78;;;19.10;99.90;;;;;;5054116;28;20028;-66
2021/06/10 06:14:28;;;;;;;6.80;4.15;;;19.30;99.90;;;;;;5050775;28;20021;-66
2021/06/10 06:16:54;;;;;;;7.22;3.63;;;19.40;99.90;;;;;;5045930;28;20055;-64
2021/06/10 06:19:20;;;;;;;4.82;3.05;;;19.70;99.90;;;;;;5047941;28;20474;-64
2021/06/10 06:21:46;;;;;;;6.57;3.15;;;19.80;99.90;;;;;;5037009;28;20238;-64
2021/06/10 06:24:12;;;;;;;10.20;3.40;;;20.00;99.90;;;;;;5050085;28;20027;-67
2021/06/10 06:26:38;;;;;;;5.63;3.65;;;20.30;99.90;;;;;;5040653;28;20053;-64
2021/06/10 06:29:04;;;;;;;7.65;3.90;;;20.40;99.90;;;;;;5040532;28;20055;-64
2021/06/10 06:31:31;;;;;;;8.50;3.85;;;20.60;99.90;;;;;;5040518;28;20017;-64
2021/06/10 06:33:57;;;;;;;5.45;4.53;;;21.00;99.90;;;;;;5051310;28;20643;-66
2021/06/10 06:36:22;;;;;;;5.93;4.50;;;21.20;99.90;;;;;;5042766;28;20297;-64
2021/06/10 06:38:48;;;;;;;9.25;4.45;;;21.10;99.90;;;;;;5054297;28;20049;-64
2021/06/10 06:41:15;;;;;;;7.55;3.83;;;21.00;99.90;;;;;;5044041;28;20013;-65
2021/06/10 06:43:40;;;;;;;7.05;4.15;;;21.10;99.90;;;;;;5052857;28;20391;-65
2021/06/10 06:46:07;;;;;;;5.18;4.40;;;21.30;99.90;;;;;;5049695;28;20013;-63
2021/06/10 06:48:33;;;;;;;6.00;3.85;;;21.50;99.90;;;;;;5047744;28;20025;-64
2021/06/10 06:51:00;;;;;;;5.78;3.83;;;21.70;99.90;;;;;;5044327;28;20060;-66
2021/06/10 06:53:28;;;;;;;5.50;4.30;;;21.60;99.90;;;;;;5050277;28;20021;-65
2021/06/10 06:55:54;;;;;;;12.80;4.07;;;21.80;99.50;;;;;;5050271;28;20410;-66
2021/06/10 06:58:20;;;;;;;8.07;4.75;;;21.80;99.70;;;;;;5051012;28;20032;-64
2021/06/10 07:00:45;;;;;;;9.40;4.97;;;21.80;99.90;;;;;;5050627;28;20048;-66
2021/06/10 07:03:11;;;;;;;13.77;5.22;;;21.20;99.90;;;;;;5044742;28;20028;-64
2021/06/10 07:05:37;;;;;;;14.55;5.35;;;21.50;99.90;;;;;;5050224;28;20023;-65
2021/06/10 07:08:02;;;;;;;7.65;5.72;;;21.40;99.90;;;;;;5048139;28;20032;-65
2021/06/10 07:10:28;;;;;;;9.27;4.65;;;21.00;99.90;;;;;;5042894;28;20025;-67
2021/06/10 07:12:53;;;;;;;9.13;4.90;;;21.00;99.90;;;;;;5048923;28;20025;-65
2021/06/10 07:15:19;;;;;;;8.15;4.50;;;21.30;99.90;;;;;;5053377;28;20087;-65
2021/06/10 07:17:44;;;;;;;10.43;5.57;;;21.60;99.90;;;;;;5045393;28;20075;-65
2021/06/10 07:20:10;;;;;;;8.73;5.13;;;21.40;99.90;;;;;;5049029;28;20040;-66
2021/06/10 07:22:38;;;;;;;8.35;5.65;;;21.10;99.90;;;;;;5043028;28;20053;-66
2021/06/10 07:25:05;;;;;;;11.95;6.13;;;21.10;99.90;;;;;;5036460;28;20013;-66
2021/06/10 07:27:31;;;;;;;19.80;4.80;;;21.10;99.90;;;;;;5020339;28;20030;-66
2021/06/10 07:29:59;;;;;;;7.57;5.10;;;21.00;99.90;;;;;;5048800;28;20052;-65
2021/06/10 07:32:24;;;;;;;7.60;5.25;;;21.30;99.90;;;;;;5051501;28;20017;-66
2021/06/10 07:34:50;;;;;;;7.43;4.95;;;21.40;99.90;;;;;;5067232;28;20530;-64
2021/06/10 07:37:16;;;;;;;9.27;4.82;;;21.30;99.90;;;;;;5065706;28;20020;-65
2021/06/10 07:39:42;;;;;;;7.15;4.78;;;21.60;99.90;;;;;;5057890;28;20028;-67
2021/06/10 07:42:08;;;;;;;6.03;4.43;;;21.70;99.90;;;;;;5042756;28;20100;-65
2021/06/10 07:44:33;;;;;;;8.25;5.38;;;21.80;99.90;;;;;;5050532;28;20146;-65
2021/06/10 07:46:59;;;;;;;6.25;4.55;;;21.70;99.90;;;;;;5040347;28;20060;-67
2021/06/10 07:49:25;;;;;;;6.72;4.78;;;21.70;99.90;;;;;;5055578;28;20021;-64
2021/06/10 07:51:50;;;;;;;7.38;4.65;;;21.70;99.90;;;;;;5055768;28;20522;-64
2021/06/10 07:54:16;;;;;;;10.50;5.35;;;21.80;99.90;;;;;;5052164;28;20589;-64
2021/06/10 07:56:42;;;;;;;6.50;4.80;;;21.60;99.90;;;;;;5051397;28;20029;-64
2021/06/10 07:59:09;;;;;;;12.93;5.43;;;21.50;99.90;;;;;;5049722;28;20097;-65
2021/06/10 08:01:35;;;;;;;8.02;5.00;;;21.50;99.90;;;;;;5029901;28;20022;-65
2021/06/10 08:04:01;;;;;;;7.07;4.38;;;21.70;99.90;;;;;;5055204;28;20049;-65
2021/06/10 08:06:26;;;;;;;7.90;4.03;;;21.90;99.90;;;;;;5046707;28;20029;-65
2021/06/10 08:08:52;;;;;;;8.90;4.13;;;22.00;99.90;;;;;;5048238;28;20017;-65
2021/06/10 08:11:17;;;;;;;10.52;4.63;;;21.90;99.90;;;;;;5048492;28;20408;-65
2021/06/10 08:13:43;;;;;;;6.80;4.07;;;22.00;99.90;;;;;;5051227;28;20036;-66
2021/06/10 08:16:09;;;;;;;8.88;4.75;;;21.90;99.90;;;;;;5049835;28;20033;-64
2021/06/10 08:18:36;;;;;;;4.63;3.78;;;22.00;99.90;;;;;;5040930;28;20029;-65
2021/06/10 08:21:02;;;;;;;5.18;3.38;;;22.20;99.90;;;;;;5033142;28;20479;-65
2021/06/10 08:23:29;;;;;;;6.35;3.35;;;22.20;99.90;;;;;;5045482;28;20138;-66
2021/06/10 08:25:57;;;;;;;2.95;2.45;;;22.30;99.90;;;;;;5043980;28;20415;-65
2021/06/10 08:28:23;;;;;;;7.45;3.17;;;22.40;99.90;;;;;;5054152;28;20230;-65
2021/06/10 08:30:49;;;;;;;6.15;2.22;;;22.60;99.90;;;;;;5052452;28;20021;-66
2021/06/10 08:33:17;;;;;;;2.40;2.10;;;22.80;99.60;;;;;;5041266;28;20037;-65
2021/06/10 08:35:44;;;;;;;2.45;1.88;;;22.90;97.40;;;;;;5038226;28;20109;-67
2021/06/10 08:38:10;;;;;;;4.13;1.90;;;22.70;94.50;;;;;;5047577;28;20591;-65
2021/06/10 08:40:37;;;;;;;3.22;2.20;;;22.70;94.70;;;;;;5047509;28;20021;-67
2021/06/10 08:43:06;;;;;;;6.07;2.80;;;22.80;95.30;;;;;;5041615;28;20017;-66
2021/06/10 08:45:32;;;;;;;5.00;2.80;;;22.80;94.60;;;;;;5035298;28;20305;-66
2021/06/10 08:47:58;;;;;;;8.80;3.08;;;22.50;97.60;;;;;;5041690;28;20021;-66
2021/06/10 08:50:27;;;;;;;3.63;2.60;;;22.40;98.90;;;;;;5041194;28;20032;-66
2021/06/10 08:52:54;;;;;;;6.38;2.83;;;22.60;99.00;;;;;;5047718;28;20167;-67
2021/06/10 08:55:21;;;;;;;8.10;3.90;;;22.70;99.50;;;;;;5038224;28;20025;-65
2021/06/10 08:57:47;;;;;;;7.97;4.50;;;23.00;99.90;;;;;;5035907;28;20013;-65
2021/06/10 09:00:14;;;;;;;6.55;4.38;;;22.90;99.90;;;;;;5040826;28;20022;-65
2021/06/10 09:02:39;;;;;;;10.77;5.10;;;23.00;99.90;;;;;;5036178;28;20017;-66
2021/06/10 09:05:11;;;;;;;6.05;4.43;;;22.90;99.90;;;;;;5038254;28;20028;-65
2021/06/10 09:07:39;;;;;;;5.03;3.95;;;23.10;99.90;;;;;;5036045;28;20037;-67
2021/06/10 09:10:07;;;;;;;7.65;4.88;;;23.30;99.90;;;;;;5047050;28;20441;-66
2021/06/10 09:12:48;;;;;;;7.13;5.10;;;22.80;99.90;;;;;;5047286;28;20033;-67
2021/06/10 09:15:16;;;;;;;10.75;6.75;;;22.90;99.90;;;;;;5030364;28;20022;-66
2021/06/10 09:17:42;;;;;;;10.98;6.55;;;23.00;99.90;;;;;;5036381;28;20021;-65
2021/06/10 09:20:20;;;;;;;8.20;6.35;;;22.70;99.90;;;;;;5046693;28;20100;-64
2021/06/10 09:22:47;;;;;;;10.35;6.47;;;22.70;99.90;;;;;;5047457;28;20025;-66
2021/06/10 09:25:16;;;;;;;7.50;6.30;;;22.60;99.90;;;;;;5035041;28;20364;-66
2021/06/10 09:28:01;;;;;;;17.48;7.28;;;22.70;99.90;;;;;;5038083;28;20021;-65
2021/06/10 09:30:38;;;;;;;8.82;5.22;;;22.60;99.90;;;;;;5037057;28;20583;-67
2021/06/10 09:33:09;;;;;;;7.18;4.65;;;22.70;99.90;;;;;;5046499;28;20021;-64
2021/06/10 09:35:38;;;;;;;5.22;3.80;;;22.70;99.90;;;;;;5044459;28;20091;-65
2021/06/10 09:38:14;;;;;;;14.07;5.55;;;22.90;99.70;;;;;;5031488;28;20123;-66
2021/06/10 09:40:41;;;;;;;8.68;5.45;;;23.00;99.90;;;;;;5035183;28;20025;-66
2021/06/10 09:43:07;;;;;;;8.35;6.13;;;23.10;99.90;;;;;;5045516;28;20017;-64
2021/06/10 09:45:33;;;;;;;10.70;5.53;;;23.10;99.90;;;;;;5046396;28;20013;-66
2021/06/10 09:48:01;;;;;;;11.18;5.32;;;23.20;99.90;;;;;;5046658;28;20104;-66
2021/06/10 09:50:38;;;;;;;7.15;4.32;;;23.30;99.90;;;;;;5046592;28;20041;-66
2021/06/10 09:53:16;;;;;;;9.65;6.63;;;23.10;99.90;;;;;;5046660;28;20046;-66
2021/06/10 09:55:52;;;;;;;9.77;6.80;;;23.00;99.90;;;;;;5047534;28;20063;-65
2021/06/10 09:58:24;;;;;;;7.72;5.80;;;23.00;99.90;;;;;;5037195;28;20471;-64
2021/06/10 10:00:52;;;;;;;8.27;4.25;;;23.20;99.90;;;;;;5050486;28;20321;-66
2021/06/10 10:03:24;;;;;;;10.30;5.43;;;23.30;98.90;;;;;;5049257;28;20022;-66
2021/06/10 10:05:51;;;;;;;9.00;5.78;;;23.40;97.10;;;;;;5051445;28;20021;-66
2021/06/10 10:08:17;;;;;;;12.20;4.90;;;23.30;97.50;;;;;;5050838;28;20104;-66
2021/06/10 10:10:43;;;;;;;9.35;4.82;;;23.30;97.30;;;;;;5051202;28;20367;-65
2021/06/10 10:13:10;;;;;;;6.82;4.40;;;23.30;95.60;;;;;;5054614;28;20099;-66
2021/06/10 10:15:37;;;;;;;14.85;3.83;;;23.30;95.30;;;;;;5060869;28;20024;-65
2021/06/10 10:18:03;;;;;;;9.90;4.07;;;23.40;93.70;;;;;;5054609;28;20028;-66
2021/06/10 10:20:29;;;;;;;13.13;5.65;;;23.20;94.90;;;;;;5051365;28;20522;-68
2021/06/10 10:22:54;;;;;;;7.25;5.80;;;23.30;96.60;;;;;;5050611;28;20032;-64
2021/06/10 10:25:22;;;;;;;6.53;5.32;;;23.30;97.80;;;;;;5047429;28;20021;-64
2021/06/10 10:27:47;;;;;;;10.77;6.03;;;23.20;98.50;;;;;;5034232;28;20018;-65
2021/06/10 10:30:14;;;;;;;8.48;4.82;;;23.30;97.30;;;;;;5036815;28;20181;-65
2021/06/10 10:32:44;;;;;;;13.10;6.68;;;23.40;98.90;;;;;;5034216;28;20127;-65
2021/06/10 10:35:22;;;;;;;10.07;6.25;;;23.00;99.10;;;;;;5051831;28;20021;-66
2021/06/10 10:37:49;;;;;;;9.95;6.50;;;22.70;98.70;;;;;;5034703;28;20045;-66
2021/06/10 10:40:24;;;;;;;12.27;6.55;;;23.10;99.90;;;;;;5046314;28;20035;-67
2021/06/10 10:42:54;;;;;;;11.98;5.95;;;23.30;98.10;;;;;;5034126;28;20052;-66
2021/06/10 10:45:25;;;;;;;9.25;6.22;;;23.30;99.30;;;;;;5063619;28;20032;-65
2021/06/10 10:50:45;;;;;;;7.20;5.93;;;23.50;99.00;;;;;;5052920;28;20029;-67
2021/06/10 10:53:19;;;;;;;11.55;7.07;;;23.60;98.70;;;;;;5055368;28;20009;-67
2021/06/10 10:56:04;;;;;;;9.63;6.55;;;23.50;98.00;;;;;;5062908;28;20033;-65
2021/06/10 10:58:29;;;;;;;10.00;6.50;;;23.10;99.30;;;;;;5049448;28;20050;-66
2021/06/10 11:01:00;;;;;;;9.82;6.63;;;23.20;99.70;;;;;;5056400;28;20112;-66
2021/06/10 11:03:31;;;;;;;11.90;7.13;;;23.30;99.70;;;;;;5051272;28;20064;-67
2021/06/10 11:05:58;;;;;;;13.87;7.13;;;23.50;99.90;;;;;;5060671;22;20037;-66
2021/06/10 11:08:59;;;;;;;13.43;7.10;;;23.70;99.20;;;;;;5048624;28;20025;-65
2021/06/10 11:11:49;;;;;;;10.75;6.95;;;23.90;99.40;;;;;;5048265;28;20040;-65
2021/06/10 11:14:37;;;;;;;11.50;6.82;;;24.20;98.60;;;;;;5048404;28;20078;-65
2021/06/10 11:17:12;;;;;;;14.50;8.25;;;24.50;98.10;;;;;;5060118;28;20016;-66
2021/06/10 11:19:48;;;;;;;12.30;7.82;;;24.50;98.50;;;;;;5052354;28;20100;-65
2021/06/10 11:22:32;;;;;;;15.75;7.35;;;24.50;99.60;;;;;;5048967;28;20033;-66
2021/06/10 11:24:59;;;;;;;16.70;9.32;;;24.60;99.60;;;;;;5047416;28;20495;-66
2021/06/10 11:27:42;;;;;;;8.82;7.10;;;24.70;98.30;;;;;;5043106;28;20041;-65
2021/06/10 11:30:11;;;;;;;11.30;8.77;;;24.60;99.30;;;;;;5045638;28;20270;-66
2021/06/10 11:33:13;;;;;;;17.15;9.68;;;24.20;99.90;;;;;;5032422;28;20115;-65
2021/06/10 11:35:44;;;;;;;11.13;8.80;;;23.60;99.90;;;;;;5044894;28;20103;-65
2021/06/10 11:38:21;;;;;;;13.00;8.40;;;23.50;99.90;;;;;;5041738;28;20379;-64
2021/06/10 11:41:03;;;;;;;15.55;10.32;;;23.80;99.90;;;;;;5038279;28;20201;-68
2021/06/10 11:43:30;;;;;;;19.60;10.52;;;24.40;99.90;;;;;;5048321;28;20044;-65
2021/06/10 11:46:02;;;;;;;15.38;10.25;;;24.60;99.90;;;;;;5045913;28;20028;-65
2021/06/10 11:48:40;;;;;;;16.40;10.65;;;24.60;99.90;;;;;;5034316;28;20407;-66
2021/06/10 11:51:17;;;;;;;15.55;11.63;;;24.80;99.90;;;;;;5038470;28;20060;-66
2021/06/10 11:53:43;;;;;;;22.60;12.80;;;24.90;99.90;;;;;;5040538;28;20521;-70
2021/06/10 11:56:08;;;;;;;18.15;11.90;;;25.00;99.90;;;;;;5047421;28;20033;-66
2021/06/10 11:58:34;;;;;;;16.77;11.43;;;25.10;99.90;;;;;;5040715;28;20100;-65
2021/06/10 12:01:12;;;;;;;17.85;12.45;;;25.00;99.90;;;;;;5047813;28;20029;-65
2021/06/10 12:03:41;;;;;;;20.95;13.95;;;25.00;99.90;;;;;;5047395;28;20025;-67
2021/06/10 12:06:08;;;;;;;16.67;11.50;;;25.10;99.90;;;;;;5035483;28;20602;-65
2021/06/10 12:08:36;;;;;;;16.80;10.68;;;24.80;99.90;;;;;;5041095;28;20063;-66
2021/06/10 12:11:08;;;;;;;18.38;10.80;;;25.20;99.90;;;;;;5040154;28;20521;-65
2021/06/10 12:13:53;;;;;;;14.02;9.45;;;25.40;99.90;;;;;;5040480;28;20363;-66
2021/06/10 12:16:19;;;;;;;15.52;10.65;;;25.50;99.90;;;;;;5034536;28;20036;-66
2021/06/10 12:18:47;;;;;;;15.45;10.43;;;25.60;99.90;;;;;;5047539;28;20316;-66
2021/06/10 12:21:16;;;;;;;13.73;10.05;;;25.70;99.90;;;;;;5046602;28;20060;-64
2021/06/10 12:23:46;;;;;;;17.13;10.77;;;25.50;99.90;;;;;;5046081;28;20055;-65
2021/06/10 12:26:14;;;;;;;15.27;11.45;;;25.20;99.90;;;;;;5039104;28;20022;-65
2021/06/10 12:28:42;;;;;;;16.33;10.10;;;25.40;99.90;;;;;;5034900;28;20376;-64
2021/06/10 12:31:16;;;;;;;12.07;8.82;;;25.40;99.90;;;;;;5047323;28;20108;-65
2021/06/10 12:33:47;;;;;;;13.88;8.27;;;25.80;99.90;;;;;;5052316;28;20060;-67
2021/06/10 12:36:14;;;;;;;13.30;7.93;;;26.10;99.90;;;;;;5037656;28;20025;-65
2021/06/10 12:38:40;;;;;;;12.95;8.50;;;26.30;99.90;;;;;;5033367;28;20203;-67
2021/06/10 12:41:11;;;;;;;13.07;7.25;;;26.40;99.10;;;;;;5041764;28;20052;-66
2021/06/10 12:43:37;;;;;;;14.73;7.63;;;26.50;99.20;;;;;;5042640;28;20078;-66
2021/06/10 12:46:04;;;;;;;16.58;7.85;;;26.60;98.80;;;;;;5041448;28;20021;-66
2021/06/10 12:48:31;;;;;;;11.80;7.60;;;26.20;98.90;;;;;;5037948;28;20260;-66
2021/06/10 12:51:22;;;;;;;13.80;6.40;;;26.30;99.80;;;;;;5032114;28;20021;-65